Time,TemperatureF,DewpointF,PressureIn,WindDirection,WindDirectionDegrees,WindSpeedMPH,WindSpeedGustMPH,Humidity,HourlyPrecipIn,Conditions,Clouds,dailyrainin,SoftwareType,DateUTC
2013-09-16 00:10:00,58.9,53.0,29.73,NW,309,2.0,-999.0,80,-99.99,,,0.00,weatherlink.com 1.10,2013-09-16 06:10:00,
2013-09-16 00:25:00,58.7,53.0,29.74,NW,309,2.0,-999.0,80,-99.99,,,0.00,weatherlink.com 1.10,2013-09-16 06:25:00,
2013-09-16 00:40:00,58.0,53.0,29.73,NW,309,2.0,-999.0,82,-99.99,,,0.00,weatherlink.com 1.10,2013-09-16 06:40:00,
2013-09-16 00:55:00,57.5,52.0,29.74,NW,309,0.0,-999.0,83,-99.99,,,0.00,weatherlink.com 1.10,2013-09-16 06:55:00,
2013-09-16 01:10:00,58.0,53.0,29.74,NW,309,2.0,-999.0,82,-99.99,,,0.00,weatherlink.com 1.10,2013-09-16 07:10:00,
2013-09-16 01:25:00,57.8,52.0,29.75,NW,309,0.0,-999.0,80,-99.99,,,0.00,weatherlink.com 1.10,2013-09-16 07:25:00,
2013-09-16 01:40:00,56.7,52.0,29.75,NW,309,4.0,-999.0,83,-99.99,,,0.00,weatherlink.com 1.10,2013-09-16 07:40:00,
2013-09-16 01:55:00,57.5,52.0,29.75,NW,309,3.0,-999.0,81,-99.99,,,0.00,weatherlink.com 1.10,2013-09-16 07:55:00,
2013-09-16 02:10:00,57.6,51.0,29.75,NW,309,3.0,-999.0,79,-99.99,,,0.00,weatherlink.com 1.10,2013-09-16 08:10:00,
2013-09-16 02:26:00,57.5,51.0,29.75,NW,309,4.0,-999.0,79,-99.99,,,0.00,weatherlink.com 1.10,2013-09-16 08:26:00,
2013-09-16 02:41:00,57.5,51.0,29.73,NW,309,3.0,-999.0,79,-99.99,,,0.00,weatherlink.com 1.10,2013-09-16 08:41:00,
2013-09-16 02:56:00,56.7,51.0,29.73,NW,309,5.0,-999.0,81,-99.99,,,0.00,weatherlink.com 1.10,2013-09-16 08:56:00,
2013-09-16 03:11:00,56.5,51.0,29.74,NW,309,3.0,-999.0,81,-99.99,,,0.00,weatherlink.com 1.10,2013-09-16 09:11:00,
2013-09-16 03:26:00,56.3,51.0,29.74,NW,309,3.0,-999.0,81,-99.99,,,0.00,weatherlink.com 1.10,2013-09-16 09:26:00,
2013-09-16 03:41:00,56.2,51.0,29.75,NW,309,0.0,-999.0,82,-99.99,,,0.00,weatherlink.com 1.10,2013-09-16 09:41:00,
2013-09-16 03:56:00,55.4,50.0,29.75,NW,309,0.0,-999.0,83,-99.99,,,0.00,weatherlink.com 1.10,2013-09-16 09:56:00,
2013-09-16 04:11:00,55.3,51.0,29.76,NW,309,2.0,-999.0,84,-99.99,,,0.00,weatherlink.com 1.10,2013-09-16 10:11:00,
2013-09-16 04:26:00,55.3,51.0,29.77,NW,309,0.0,-999.0,84,-99.99,,,0.00,weatherlink.com 1.10,2013-09-16 10:26:00,
2013-09-16 04:40:00,55.1,50.0,29.76,NW,309,1.0,-999.0,84,-99.99,,,0.00,weatherlink.com 1.10,2013-09-16 10:40:00,
2013-09-16 04:56:00,54.8,50.0,29.76,NW,309,2.0,-999.0,85,-99.99,,,0.00,weatherlink.com 1.10,2013-09-16 10:56:00,
2013-09-16 05:11:00,54.4,50.0,29.76,NW,309,0.0,-999.0,86,-99.99,,,0.00,weatherlink.com 1.10,2013-09-16 11:11:00,
2013-09-16 05:26:00,54.7,50.0,29.76,NW,309,0.0,-999.0,85,-99.99,,,0.00,weatherlink.com 1.10,2013-09-16 11:26:00,
2013-09-16 05:42:00,54.5,50.0,29.76,NW,309,2.0,-999.0,85,-99.99,,,0.00,weatherlink.com 1.10,2013-09-16 11:42:00,
2013-09-16 05:57:00,54.7,50.0,29.76,NW,309,0.0,-999.0,85,-99.99,,,0.00,weatherlink.com 1.10,2013-09-16 11:57:00,
2013-09-16 06:11:00,54.2,50.0,29.78,NW,309,2.0,-999.0,85,-99.99,,,0.00,weatherlink.com 1.10,2013-09-16 12:11:00,
2013-09-16 06:26:00,53.9,50.0,29.79,NW,309,3.0,-999.0,86,-99.99,,,0.00,weatherlink.com 1.10,2013-09-16 12:26:00,
2013-09-16 06:42:00,54.2,50.0,29.81,NW,309,2.0,-999.0,86,-99.99,,,0.00,weatherlink.com 1.10,2013-09-16 12:42:00,
2013-09-16 06:57:00,54.8,50.0,29.81,NW,309,3.0,-999.0,85,-99.99,,,0.00,weatherlink.com 1.10,2013-09-16 12:57:00,
2013-09-16 07:12:00,55.0,50.0,29.81,NW,309,5.0,-999.0,84,-99.99,,,0.00,weatherlink.com 1.10,2013-09-16 13:12:00,
2013-09-16 07:26:00,55.3,51.0,29.82,NW,309,3.0,-999.0,84,-99.99,,,0.00,weatherlink.com 1.10,2013-09-16 13:26:00,
2013-09-16 07:41:00,56.2,51.0,29.84,NW,309,3.0,-999.0,83,-99.99,,,0.00,weatherlink.com 1.10,2013-09-16 13:41:00,
2013-09-16 07:57:00,58.1,52.0,29.83,NW,309,3.0,-999.0,81,-99.99,,,0.00,weatherlink.com 1.10,2013-09-16 13:57:00,
2013-09-16 08:12:00,61.2,53.0,29.82,NW,309,5.0,-999.0,74,-99.99,,,0.00,weatherlink.com 1.10,2013-09-16 14:12:00,
2013-09-16 08:27:00,63.9,53.0,29.81,NE,52,5.0,-999.0,67,-99.99,,,0.00,weatherlink.com 1.10,2013-09-16 14:27:00,
2013-09-16 08:43:00,65.8,53.0,29.82,ESE,104,5.0,-999.0,63,-99.99,,,0.00,weatherlink.com 1.10,2013-09-16 14:43:00,
2013-09-16 08:58:00,66.3,52.0,29.81,ENE,78,2.0,-999.0,61,-99.99,,,0.00,weatherlink.com 1.10,2013-09-16 14:58:00,
2013-09-16 09:12:00,67.1,52.0,29.80,East,84,2.0,-999.0,59,-99.99,,,0.00,weatherlink.com 1.10,2013-09-16 15:12:00,
2013-09-16 09:27:00,67.9,53.0,29.81,ESE,112,1.0,-999.0,59,-99.99,,,0.00,weatherlink.com 1.10,2013-09-16 15:27:00,
2013-09-16 09:42:00,68.8,52.0,29.81,ENE,75,3.0,-999.0,56,-99.99,,,0.00,weatherlink.com 1.10,2013-09-16 15:42:00,
2013-09-16 09:58:00,69.8,53.0,29.81,ENE,76,4.0,-999.0,55,-99.99,,,0.00,weatherlink.com 1.10,2013-09-16 15:58:00,
2013-09-16 10:13:00,69.9,53.0,29.80,East,86,8.0,-999.0,55,-99.99,,,0.00,weatherlink.com 1.10,2013-09-16 16:13:00,
2013-09-16 10:29:00,70.6,52.0,29.80,ESE,110,5.0,-999.0,53,-99.99,,,0.00,weatherlink.com 1.10,2013-09-16 16:29:00,
2013-09-16 10:42:00,71.3,53.0,29.82,ENE,77,7.0,-999.0,53,-99.99,,,0.00,weatherlink.com 1.10,2013-09-16 16:42:00,
2013-09-16 10:57:00,71.8,53.0,29.82,ESE,108,5.0,-999.0,51,-99.99,,,0.00,weatherlink.com 1.10,2013-09-16 16:57:00,
2013-09-16 11:14:00,72.5,53.0,29.81,ENE,74,5.0,-999.0,50,-99.99,,,0.00,weatherlink.com 1.10,2013-09-16 17:14:00,
2013-09-16 11:29:00,72.7,52.0,29.80,NE,46,7.0,-999.0,49,-99.99,,,0.00,weatherlink.com 1.10,2013-09-16 17:29:00,
2013-09-16 11:44:00,73.3,52.0,29.79,ENE,78,2.0,-999.0,48,-99.99,,,0.00,weatherlink.com 1.10,2013-09-16 17:44:00,
2013-09-16 11:58:00,74.0,52.0,29.79,East,84,7.0,-999.0,47,-99.99,,,0.00,weatherlink.com 1.10,2013-09-16 17:58:00,
2013-09-16 12:14:00,74.4,52.0,29.79,SE,131,4.0,-999.0,45,-99.99,,,0.00,weatherlink.com 1.10,2013-09-16 18:14:00,
2013-09-16 12:29:00,74.6,51.0,29.78,SSE,153,0.0,-999.0,44,-99.99,,,0.00,weatherlink.com 1.10,2013-09-16 18:29:00,
2013-09-16 12:44:00,75.8,52.0,29.78,East,83,3.0,-999.0,43,-99.99,,,0.00,weatherlink.com 1.10,2013-09-16 18:44:00,
2013-09-16 12:59:00,76.3,51.0,29.77,East,97,12.0,-999.0,41,-99.99,,,0.00,weatherlink.com 1.10,2013-09-16 18:59:00,
2013-09-16 13:14:00,76.7,51.0,29.77,East,97,5.0,-999.0,40,-99.99,,,0.00,weatherlink.com 1.10,2013-09-16 19:14:00,
2013-09-16 13:30:00,76.7,50.0,29.76,East,84,3.0,-999.0,39,-99.99,,,0.00,weatherlink.com 1.10,2013-09-16 19:30:00,
2013-09-16 13:45:00,77.2,49.0,29.75,ENE,70,0.0,-999.0,37,-99.99,,,0.00,weatherlink.com 1.10,2013-09-16 19:45:00,
2013-09-16 14:00:00,77.9,50.0,29.75,East,81,4.0,-999.0,38,-99.99,,,0.00,weatherlink.com 1.10,2013-09-16 20:00:00,
2013-09-16 14:14:00,77.9,49.0,29.74,ESE,118,1.0,-999.0,36,-99.99,,,0.00,weatherlink.com 1.10,2013-09-16 20:14:00,
2013-09-16 14:29:00,77.6,49.0,29.73,SW,218,3.0,-999.0,37,-99.99,,,0.00,weatherlink.com 1.10,2013-09-16 20:29:00,
2013-09-16 14:45:00,77.7,48.0,29.74,WSW,255,1.0,-999.0,35,-99.99,,,0.00,weatherlink.com 1.10,2013-09-16 20:45:00,
2013-09-16 15:00:00,79.8,50.0,29.72,SSW,196,2.0,-999.0,35,-99.99,,,0.00,weatherlink.com 1.10,2013-09-16 21:00:00,
2013-09-16 15:15:00,79.9,47.0,29.70,SSW,195,2.0,-999.0,31,-99.99,,,0.00,weatherlink.com 1.10,2013-09-16 21:15:00,
2013-09-16 15:31:00,79.9,50.0,29.69,East,86,0.0,-999.0,35,-99.99,,,0.00,weatherlink.com 1.10,2013-09-16 21:31:00,
2013-09-16 15:44:00,80.3,48.0,29.69,South,191,2.0,-999.0,32,-99.99,,,0.00,weatherlink.com 1.10,2013-09-16 21:44:00,
2013-09-16 16:00:00,80.5,46.0,29.69,West,263,0.0,-999.0,30,-99.99,,,0.00,weatherlink.com 1.10,2013-09-16 22:00:00,
2013-09-16 16:15:00,80.1,46.0,29.68,SW,220,3.0,-999.0,30,-99.99,,,0.00,weatherlink.com 1.10,2013-09-16 22:15:00,
2013-09-16 16:31:00,80.1,48.0,29.68,South,187,3.0,-999.0,32,-99.99,,,0.00,weatherlink.com 1.10,2013-09-16 22:31:00,
2013-09-16 16:45:00,80.5,45.0,29.68,SSW,208,0.0,-999.0,29,-99.99,,,0.00,weatherlink.com 1.10,2013-09-16 22:45:00,
2013-09-16 17:00:00,79.2,46.0,29.67,West,273,0.0,-999.0,31,-99.99,,,0.00,weatherlink.com 1.10,2013-09-16 23:00:00,
2013-09-16 17:15:00,79.8,47.0,29.68,SW,217,0.0,-999.0,31,-99.99,,,0.00,weatherlink.com 1.10,2013-09-16 23:15:00,
2013-09-16 17:31:00,79.9,47.0,29.67,SW,217,0.0,-999.0,32,-99.99,,,0.00,weatherlink.com 1.10,2013-09-16 23:31:00,
2013-09-16 17:46:00,79.9,47.0,29.68,WSW,238,3.0,-999.0,31,-99.99,,,0.00,weatherlink.com 1.10,2013-09-16 23:46:00,
2013-09-16 18:02:00,80.5,47.0,29.67,WSW,238,0.0,-999.0,31,-99.99,,,0.00,weatherlink.com 1.10,2013-09-17 00:02:00,
2013-09-16 18:15:00,80.1,47.0,29.67,WSW,238,3.0,-999.0,31,-99.99,,,0.00,weatherlink.com 1.10,2013-09-17 00:15:00,
2013-09-16 18:31:00,78.8,47.0,29.67,WSW,237,0.0,-999.0,32,-99.99,,,0.00,weatherlink.com 1.10,2013-09-17 00:31:00,
2013-09-16 18:46:00,78.5,46.0,29.67,WSW,237,0.0,-999.0,32,-99.99,,,0.00,weatherlink.com 1.10,2013-09-17 00:46:00,
2013-09-16 19:02:00,77.6,48.0,29.68,WSW,237,0.0,-999.0,35,-99.99,,,0.00,weatherlink.com 1.10,2013-09-17 01:02:00,
2013-09-16 19:16:00,76.0,49.0,29.67,WSW,237,0.0,-999.0,38,-99.99,,,0.00,weatherlink.com 1.10,2013-09-17 01:16:00,
2013-09-16 19:31:00,74.2,48.0,29.68,WSW,237,0.0,-999.0,39,-99.99,,,0.00,weatherlink.com 1.10,2013-09-17 01:31:00,
2013-09-16 19:46:00,72.8,50.0,29.65,WSW,237,0.0,-999.0,45,-99.99,,,0.00,weatherlink.com 1.10,2013-09-17 01:46:00,
2013-09-16 20:01:00,71.3,48.0,29.66,WSW,237,0.0,-999.0,44,-99.99,,,0.00,weatherlink.com 1.10,2013-09-17 02:01:00,
2013-09-16 20:16:00,69.8,51.0,29.68,WSW,237,0.0,-999.0,51,-99.99,,,0.00,weatherlink.com 1.10,2013-09-17 02:16:00,
2013-09-16 20:31:00,67.3,53.0,29.69,WSW,237,0.0,-999.0,61,-99.99,,,0.00,weatherlink.com 1.10,2013-09-17 02:31:00,
2013-09-16 20:46:00,67.8,52.0,29.68,SSW,196,0.0,-999.0,57,-99.99,,,0.00,weatherlink.com 1.10,2013-09-17 02:46:00,
2013-09-16 21:01:00,67.8,52.0,29.68,SSW,196,0.0,-999.0,58,-99.99,,,0.00,weatherlink.com 1.10,2013-09-17 03:01:00,
2013-09-16 21:16:00,67.6,53.0,29.68,SSW,196,0.0,-999.0,59,-99.99,,,0.00,weatherlink.com 1.10,2013-09-17 03:16:00,
2013-09-16 21:31:00,67.4,52.0,29.68,SSW,196,0.0,-999.0,59,-99.99,,,0.00,weatherlink.com 1.10,2013-09-17 03:31:00,
2013-09-16 21:46:00,66.9,52.0,29.69,SSW,196,0.0,-999.0,60,-99.99,,,0.00,weatherlink.com 1.10,2013-09-17 03:46:00,
2013-09-16 22:01:00,66.9,52.0,29.69,SSW,196,0.0,-999.0,59,-99.99,,,0.00,weatherlink.com 1.10,2013-09-17 04:01:00,
2013-09-16 22:16:00,63.5,53.0,29.69,West,278,4.0,-999.0,68,-99.99,,,0.00,weatherlink.com 1.10,2013-09-17 04:16:00,
2013-09-16 22:31:00,62.6,53.0,29.72,West,278,0.0,-999.0,71,-99.99,,,0.00,weatherlink.com 1.10,2013-09-17 04:31:00,
2013-09-16 22:46:00,62.3,53.0,29.71,West,278,0.0,-999.0,72,-99.99,,,0.00,weatherlink.com 1.10,2013-09-17 04:46:00,
2013-09-16 23:01:00,61.6,53.0,29.71,WNW,283,4.0,-999.0,74,-99.99,,,0.00,weatherlink.com 1.10,2013-09-17 05:01:00,
2013-09-16 23:16:00,61.0,53.0,29.71,WNW,283,0.0,-999.0,76,-99.99,,,0.00,weatherlink.com 1.10,2013-09-17 05:16:00,
2013-09-16 23:31:00,60.1,53.0,29.72,WNW,283,0.0,-999.0,78,-99.99,,,0.00,weatherlink.com 1.10,2013-09-17 05:31:00,
2013-09-16 23:46:00,59.8,53.0,29.72,WNW,283,0.0,-999.0,79,-99.99,,,0.00,weatherlink.com 1.10,2013-09-17 05:46:00,